WXM80 ListenWXM80 Stop

You find our weather info also at:

UK Metoffice

WeatherCloud

Weather Underground

Northeastern Weather Network

AWEKAS

Citizen Weather Observer Program (CWOP)

HAMweather, WeatherForYou, PWS Weather


Weather Underground History page Text

Daily Summary for April 7, 2017 Units:  English    Metric   Both
« Previous Day
Next Day »
Daily Weekly Monthly Yearly Custom
  High: Low: Average:
Temperature: 50.8 °F 41.2 °F 46.7 °F
Dew Point: 46.6 °F 31.1 °F 38.4 °F
Humidity: 93 % 59 % 73 %
Wind Speed: 11.9 mph 1.6 mph 6.3 mph
Wind Gust: 22.0 mph - -
Wind:- - WSW
Pressure: 29.58 in 29.25 in -
Precipitation: 0.00 in    
Historical Graphs
 
 
Tabular Data for April 7, 2017
Time Temperature Dew Point Pressure Wind Wind Speed Wind Gust Humidity Rainfall Rate (Hourly)
00:00 49.2 °F 46.1 °F 29.25 in SW 5.0 mph 10.4 mph 89 % 0.00 in
00:05 49.2 °F 46.4 °F 29.25 in SW 6.3 mph 9.2 mph 90 % 0.00 in
00:10 49.2 °F 46.4 °F 29.25 in South 5.0 mph 11.0 mph 90 % 0.00 in
00:15 49.2 °F 46.4 °F 29.25 in SSW 5.3 mph 10.4 mph 90 % 0.00 in
00:20 49.2 °F 46.4 °F 29.25 in SW 2.7 mph 11.5 mph 90 % 0.00 in
00:25 49.1 °F 46.3 °F 29.26 in South 3.7 mph 6.9 mph 90 % 0.00 in
00:30 49.1 °F 46.3 °F 29.26 in SSW 4.2 mph 5.8 mph 90 % 0.00 in
00:35 49.1 °F 46.3 °F 29.25 in SW 5.8 mph 11.5 mph 90 % 0.00 in
00:40 49.1 °F 46.6 °F 29.25 in South 3.8 mph 9.2 mph 91 % 0.00 in
00:46 49.1 °F 46.6 °F 29.26 in SSW 4.5 mph 11.5 mph 91 % 0.00 in
00:56 49.0 °F 46.5 °F 29.26 in SSW 1.9 mph 3.5 mph 91 % 0.00 in
01:01 49.0 °F 46.5 °F 29.27 in SSW 3.6 mph 4.6 mph 91 % 0.00 in
01:06 48.9 °F 46.4 °F 29.27 in South 5.0 mph 6.9 mph 91 % 0.00 in
01:09 48.8 °F 46.3 °F 29.27 in South 1.8 mph 5.8 mph 91 % 0.00 in
01:14 48.6 °F 46.1 °F 29.27 in South 4.6 mph 9.2 mph 91 % 0.00 in
01:19 48.5 °F 46.0 °F 29.27 in South 3.0 mph 6.9 mph 91 % 0.00 in
01:24 48.3 °F 45.8 °F 29.27 in South 3.0 mph 4.6 mph 91 % 0.00 in
01:29 48.2 °F 45.7 °F 29.27 in South 4.2 mph 9.2 mph 91 % 0.00 in
01:34 48.1 °F 45.6 °F 29.27 in South 3.6 mph 10.4 mph 91 % 0.00 in
01:39 48.0 °F 45.5 °F 29.27 in South 3.0 mph 5.8 mph 91 % 0.00 in
01:44 47.9 °F 45.7 °F 29.27 in South 3.2 mph 5.8 mph 92 % 0.00 in
01:49 47.9 °F 45.7 °F 29.27 in SSW 3.0 mph 4.6 mph 92 % 0.00 in
01:54 47.9 °F 45.7 °F 29.26 in SSW 2.1 mph 5.8 mph 92 % 0.00 in
01:59 47.8 °F 45.6 °F 29.26 in SSW 2.9 mph 4.6 mph 92 % 0.00 in
02:04 47.8 °F 45.6 °F 29.26 in South 1.7 mph 4.6 mph 92 % 0.00 in
02:09 47.8 °F 45.9 °F 29.26 in SSW 2.7 mph 3.5 mph 93 % 0.00 in
02:15 47.8 °F 45.6 °F 29.26 in SSW 2.5 mph 5.0 mph 92 % 0.00 in
02:20 47.8 °F 45.6 °F 29.26 in SSW 3.6 mph 6.9 mph 92 % 0.00 in
02:25 47.8 °F 45.6 °F 29.26 in SSW 4.4 mph 6.9 mph 92 % 0.00 in
02:30 47.8 °F 45.6 °F 29.26 in South 5.6 mph 9.2 mph 92 % 0.00 in
02:35 47.8 °F 45.6 °F 29.26 in SSW 3.2 mph 6.0 mph 92 % 0.00 in
02:38 47.9 °F 45.7 °F 29.26 in SW 5.5 mph 11.0 mph 92 % 0.00 in
02:43 47.9 °F 45.4 °F 29.26 in SW 4.4 mph 6.9 mph 91 % 0.00 in
02:49 47.9 °F 45.4 °F 29.26 in SSW 2.8 mph 5.8 mph 91 % 0.00 in
02:54 47.9 °F 45.4 °F 29.26 in SSW 1.6 mph 4.6 mph 91 % 0.00 in
02:59 47.8 °F 45.3 °F 29.26 in SW 4.9 mph 7.0 mph 91 % 0.00 in
03:04 47.7 °F 44.9 °F 29.26 in SSW 3.2 mph 3.5 mph 90 % 0.00 in
03:09 47.6 °F 44.8 °F 29.26 in South 2.0 mph 3.5 mph 90 % 0.00 in
03:14 47.6 °F 44.5 °F 29.27 in SSW 4.8 mph 9.0 mph 89 % 0.00 in
03:19 47.5 °F 44.4 °F 29.27 in SSW 3.8 mph 9.2 mph 89 % 0.00 in
03:24 47.5 °F 43.8 °F 29.27 in SSW 4.6 mph 9.2 mph 87 % 0.00 in
03:29 47.8 °F 43.8 °F 29.26 in SW 5.4 mph 8.0 mph 86 % 0.00 in
03:34 47.9 °F 43.6 °F 29.26 in SSW 4.9 mph 9.2 mph 85 % 0.00 in
03:39 48.0 °F 43.7 °F 29.27 in SW 6.3 mph 9.2 mph 85 % 0.00 in
03:44 48.1 °F 43.5 °F 29.27 in SSW 6.5 mph 13.8 mph 84 % 0.00 in
03:49 48.2 °F 43.3 °F 29.26 in SW 9.1 mph 12.0 mph 83 % 0.00 in
03:54 48.4 °F 43.2 °F 29.26 in WSW 5.9 mph 11.5 mph 82 % 0.00 in
03:59 48.5 °F 42.9 °F 29.26 in WSW 3.2 mph 9.2 mph 81 % 0.00 in
04:05 48.5 °F 43.3 °F 29.26 in WSW 4.2 mph 10.0 mph 82 % 0.00 in
04:10 48.4 °F 43.2 °F 29.26 in SW 4.6 mph 9.2 mph 82 % 0.00 in
04:15 48.3 °F 42.1 °F 29.26 in WSW 5.7 mph 9.2 mph 79 % 0.00 in
04:20 48.3 °F 41.8 °F 29.26 in SSW 5.8 mph 10.4 mph 78 % 0.00 in
04:25 48.2 °F 41.3 °F 29.26 in WSW 6.4 mph 10.4 mph 77 % 0.00 in
04:30 48.2 °F 41.7 °F 29.26 in WSW 4.1 mph 6.9 mph 78 % 0.00 in
04:35 48.1 °F 41.2 °F 29.26 in South 5.5 mph 9.2 mph 77 % 0.00 in
04:40 48.0 °F 40.8 °F 29.26 in SW 7.9 mph 13.8 mph 76 % 0.00 in
04:45 47.9 °F 41.0 °F 29.26 in WSW 4.5 mph 9.2 mph 77 % 0.00 in
04:50 47.8 °F 40.6 °F 29.26 in SSW 5.2 mph 8.0 mph 76 % 0.00 in
04:55 47.8 °F 40.6 °F 29.26 in SSW 5.6 mph 11.5 mph 76 % 0.00 in
05:00 47.7 °F 40.5 °F 29.26 in SW 4.6 mph 7.0 mph 76 % 0.00 in
05:05 47.5 °F 40.3 °F 29.26 in WSW 5.0 mph 10.4 mph 76 % 0.00 in
05:10 47.4 °F 39.9 °F 29.26 in WSW 1.6 mph 5.8 mph 75 % 0.00 in
05:15 47.2 °F 39.7 °F 29.26 in WSW 6.3 mph 11.5 mph 75 % 0.00 in
05:20 47.0 °F 39.8 °F 29.26 in SW 4.7 mph 9.2 mph 76 % 0.00 in
05:25 46.8 °F 39.6 °F 29.26 in SW 3.8 mph 10.4 mph 76 % 0.00 in
05:35 46.5 °F 39.7 °F 29.26 in SW 3.9 mph 6.9 mph 77 % 0.00 in
05:40 46.3 °F 39.5 °F 29.26 in SSW 4.4 mph 7.0 mph 77 % 0.00 in
05:45 46.1 °F 39.0 °F 29.26 in WSW 4.2 mph 12.7 mph 76 % 0.00 in
05:50 46.0 °F 38.9 °F 29.27 in SW 1.9 mph 3.5 mph 76 % 0.00 in
05:55 45.9 °F 39.1 °F 29.27 in SW 4.4 mph 9.2 mph 77 % 0.00 in
06:00 45.8 °F 39.0 °F 29.27 in SSW 2.0 mph 9.2 mph 77 % 0.00 in
06:05 45.6 °F 38.8 °F 29.27 in SW 5.7 mph 8.1 mph 77 % 0.00 in
06:10 45.6 °F 38.8 °F 29.27 in WSW 5.0 mph 9.2 mph 77 % 0.00 in
06:15 45.4 °F 38.9 °F 29.27 in SSW 3.9 mph 8.1 mph 78 % 0.00 in
06:20 45.3 °F 38.5 °F 29.27 in SW 5.9 mph 10.4 mph 77 % 0.00 in
06:25 45.2 °F 38.7 °F 29.28 in SSW 7.0 mph 11.5 mph 78 % 0.00 in
06:30 45.1 °F 38.3 °F 29.28 in SW 8.9 mph 11.5 mph 77 % 0.00 in
06:35 45.1 °F 38.3 °F 29.27 in SW 8.2 mph 13.8 mph 77 % 0.00 in
06:41 45.1 °F 38.6 °F 29.28 in WSW 2.1 mph 4.6 mph 78 % 0.00 in
06:46 44.9 °F 38.5 °F 29.28 in South 2.8 mph 5.8 mph 78 % 0.00 in
06:51 44.9 °F 38.5 °F 29.28 in SW 5.1 mph 8.1 mph 78 % 0.00 in
06:56 44.8 °F 38.4 °F 29.28 in SW 3.7 mph 10.4 mph 78 % 0.00 in
07:01 44.8 °F 38.4 °F 29.28 in SW 5.6 mph 9.0 mph 78 % 0.00 in
07:06 44.9 °F 38.5 °F 29.28 in SSW 6.5 mph 11.0 mph 78 % 0.00 in
07:11 45.1 °F 38.6 °F 29.28 in SSW 3.5 mph 8.1 mph 78 % 0.00 in
07:16 45.3 °F 38.5 °F 29.28 in SW 5.8 mph 11.5 mph 77 % 0.00 in
07:21 45.6 °F 38.5 °F 29.29 in SSW 7.5 mph 11.5 mph 76 % 0.00 in
07:26 45.8 °F 38.3 °F 29.29 in WSW 6.3 mph 12.7 mph 75 % 0.00 in
07:31 46.0 °F 38.5 °F 29.29 in SSW 7.7 mph 11.5 mph 75 % 0.00 in
07:36 46.2 °F 38.4 °F 29.29 in SW 9.3 mph 16.1 mph 74 % 0.00 in
07:41 46.4 °F 38.6 °F 29.28 in SW 7.1 mph 15.0 mph 74 % 0.00 in
07:46 46.6 °F 38.8 °F 29.29 in West 6.9 mph 10.0 mph 74 % 0.00 in
07:51 46.9 °F 39.0 °F 29.29 in WSW 3.6 mph 6.9 mph 74 % 0.00 in
07:56 47.1 °F 38.9 °F 29.29 in SSW 8.2 mph 13.8 mph 73 % 0.00 in
08:01 47.5 °F 38.9 °F 29.29 in SSW 5.6 mph 12.7 mph 72 % 0.00 in
08:06 47.8 °F 39.2 °F 29.29 in SW 5.3 mph 8.0 mph 72 % 0.00 in
08:11 48.2 °F 39.2 °F 29.29 in SSW 8.2 mph 11.5 mph 71 % 0.00 in
08:16 48.5 °F 39.2 °F 29.30 in SW 6.2 mph 13.8 mph 70 % 0.00 in
08:21 48.8 °F 39.4 °F 29.29 in WSW 5.5 mph 8.1 mph 70 % 0.00 in
08:26 49.1 °F 39.7 °F 29.29 in SSW 6.0 mph 6.9 mph 70 % 0.00 in
08:31 49.4 °F 39.7 °F 29.29 in South 8.7 mph 15.0 mph 69 % 0.00 in
08:36 49.7 °F 39.6 °F 29.29 in WSW 6.0 mph 11.5 mph 68 % 0.00 in
08:42 50.1 °F 39.9 °F 29.29 in SW 9.0 mph 14.0 mph 68 % 0.00 in
08:52 50.8 °F 39.8 °F 29.30 in SSW 4.5 mph 10.0 mph 66 % 0.00 in
08:57 50.4 °F 39.1 °F 29.30 in SW 9.0 mph 15.0 mph 65 % 0.00 in
09:02 50.1 °F 38.8 °F 29.30 in WSW 5.2 mph 11.5 mph 65 % 0.00 in
09:07 49.7 °F 38.8 °F 29.30 in WSW 7.2 mph 11.5 mph 66 % 0.00 in
09:12 49.3 °F 38.4 °F 29.30 in SW 4.5 mph 11.5 mph 66 % 0.00 in
09:17 49.2 °F 38.7 °F 29.30 in SW 7.9 mph 13.8 mph 67 % 0.00 in
09:22 49.0 °F 38.1 °F 29.31 in WSW 7.0 mph 11.5 mph 66 % 0.00 in
09:27 48.7 °F 38.2 °F 29.31 in SSW 7.6 mph 10.4 mph 67 % 0.00 in
09:32 48.5 °F 38.0 °F 29.31 in SW 3.5 mph 8.1 mph 67 % 0.00 in
09:37 48.3 °F 37.8 °F 29.31 in WSW 7.6 mph 17.3 mph 67 % 0.00 in
09:42 48.3 °F 38.2 °F 29.31 in West 4.6 mph 6.9 mph 68 % 0.00 in
09:47 48.2 °F 37.8 °F 29.31 in WSW 9.2 mph 18.4 mph 67 % 0.00 in
09:52 48.1 °F 37.7 °F 29.31 in SW 7.4 mph 18.0 mph 67 % 0.00 in
09:57 48.0 °F 37.6 °F 29.31 in SW 5.7 mph 11.5 mph 67 % 0.00 in
10:02 48.0 °F 37.6 °F 29.31 in SW 10.1 mph 15.0 mph 67 % 0.00 in
10:07 48.0 °F 37.9 °F 29.31 in WSW 8.4 mph 14.0 mph 68 % 0.00 in
10:17 47.9 °F 37.5 °F 29.31 in West 8.5 mph 18.4 mph 67 % 0.00 in
10:22 47.8 °F 37.4 °F 29.31 in WSW 5.5 mph 11.5 mph 67 % 0.00 in
10:27 47.8 °F 37.4 °F 29.31 in SW 6.6 mph 15.0 mph 67 % 0.00 in
10:32 47.7 °F 37.3 °F 29.32 in WSW 11.6 mph 18.4 mph 67 % 0.00 in
10:37 47.7 °F 37.7 °F 29.31 in SW 7.9 mph 11.5 mph 68 % 0.00 in
10:42 47.7 °F 37.7 °F 29.31 in SW 9.0 mph 16.0 mph 68 % 0.00 in
10:47 47.8 °F 37.7 °F 29.32 in SSW 3.7 mph 8.1 mph 68 % 0.00 in
10:52 47.8 °F 37.7 °F 29.32 in SW 8.0 mph 18.0 mph 68 % 0.00 in
10:57 47.9 °F 37.8 °F 29.32 in SW 5.7 mph 10.4 mph 68 % 0.00 in
11:02 47.9 °F 37.8 °F 29.32 in SW 6.7 mph 17.3 mph 68 % 0.00 in
11:07 48.0 °F 38.3 °F 29.32 in SSW 9.2 mph 13.8 mph 69 % 0.00 in
11:12 48.1 °F 38.4 °F 29.32 in WSW 7.9 mph 12.7 mph 69 % 0.00 in
11:17 48.3 °F 38.6 °F 29.32 in SW 6.7 mph 13.0 mph 69 % 0.00 in
11:23 48.3 °F 38.6 °F 29.32 in WSW 6.1 mph 9.2 mph 69 % 0.00 in
11:28 48.3 °F 38.6 °F 29.32 in West 6.0 mph 12.7 mph 69 % 0.00 in
11:33 48.4 °F 39.1 °F 29.32 in SSW 8.3 mph 13.8 mph 70 % 0.00 in
11:38 48.5 °F 38.8 °F 29.32 in WSW 8.2 mph 11.5 mph 69 % 0.00 in
11:43 48.7 °F 39.4 °F 29.32 in SW 6.5 mph 16.1 mph 70 % 0.00 in
11:48 48.8 °F 39.1 °F 29.32 in SSW 10.1 mph 12.7 mph 69 % 0.00 in
11:53 48.8 °F 39.4 °F 29.32 in WSW 7.9 mph 13.8 mph 70 % 0.00 in
11:58 49.0 °F 39.6 °F 29.33 in WSW 5.7 mph 9.2 mph 70 % 0.00 in
12:03 48.9 °F 39.2 °F 29.32 in West 6.5 mph 16.1 mph 69 % 0.00 in
12:08 48.9 °F 39.5 °F 29.32 in WNW 7.0 mph 11.5 mph 70 % 0.00 in
12:13 48.7 °F 39.0 °F 29.32 in WSW 5.9 mph 11.5 mph 69 % 0.00 in
12:18 48.6 °F 38.9 °F 29.32 in WSW 8.8 mph 16.1 mph 69 % 0.00 in
12:23 48.6 °F 39.3 °F 29.32 in WSW 7.6 mph 11.5 mph 70 % 0.00 in
12:28 48.6 °F 39.3 °F 29.32 in SW 10.7 mph 17.3 mph 70 % 0.00 in
12:33 48.7 °F 39.7 °F 29.32 in West 7.2 mph 13.0 mph 71 % 0.00 in
12:38 48.9 °F 39.5 °F 29.32 in SSW 6.1 mph 10.4 mph 70 % 0.00 in
12:43 49.1 °F 39.7 °F 29.32 in WSW 7.8 mph 11.0 mph 70 % 0.00 in
12:49 48.9 °F 38.8 °F 29.32 in WSW 11.4 mph 18.4 mph 68 % 0.00 in
12:54 48.5 °F 38.8 °F 29.32 in WSW 8.3 mph 15.0 mph 69 % 0.00 in
12:59 48.0 °F 39.0 °F 29.33 in WSW 7.9 mph 15.0 mph 71 % 0.00 in
13:04 46.8 °F 38.9 °F 29.33 in WSW 7.7 mph 12.7 mph 74 % 0.00 in
13:09 45.9 °F 39.1 °F 29.33 in WSW 5.3 mph 11.5 mph 77 % 0.00 in
13:19 45.0 °F 38.9 °F 29.34 in WNW 1.9 mph 3.5 mph 79 % 0.00 in
13:24 44.8 °F 38.4 °F 29.34 in WSW 6.5 mph 15.0 mph 78 % 0.00 in
13:29 44.6 °F 38.5 °F 29.34 in West 7.1 mph 11.5 mph 79 % 0.00 in
13:34 44.6 °F 38.8 °F 29.33 in SW 5.6 mph 9.2 mph 80 % 0.00 in
13:39 44.7 °F 38.9 °F 29.33 in WSW 7.0 mph 11.0 mph 80 % 0.00 in
13:44 44.9 °F 38.8 °F 29.33 in WNW 4.0 mph 5.8 mph 79 % 0.00 in
13:49 45.3 °F 39.2 °F 29.33 in WSW 5.9 mph 11.0 mph 79 % 0.00 in
13:54 45.6 °F 39.1 °F 29.33 in WSW 2.5 mph 9.2 mph 78 % 0.00 in
13:59 46.0 °F 39.5 °F 29.33 in West 6.1 mph 11.5 mph 78 % 0.00 in
14:04 46.3 °F 39.8 °F 29.33 in West 3.0 mph 11.5 mph 78 % 0.00 in
14:09 46.5 °F 40.7 °F 29.33 in WSW 5.4 mph 8.1 mph 80 % 0.00 in
14:14 47.0 °F 41.5 °F 29.33 in WNW 5.0 mph 9.0 mph 81 % 0.00 in
14:20 47.6 °F 41.1 °F 29.33 in WSW 7.1 mph 11.5 mph 78 % 0.00 in
14:25 48.2 °F 40.6 °F 29.33 in WSW 9.1 mph 11.5 mph 75 % 0.00 in
14:30 48.4 °F 39.8 °F 29.33 in West 5.2 mph 11.5 mph 72 % 0.00 in
14:35 48.5 °F 39.5 °F 29.33 in WSW 8.5 mph 12.0 mph 71 % 0.00 in
14:40 48.7 °F 39.4 °F 29.33 in WSW 5.8 mph 11.5 mph 70 % 0.00 in
14:45 48.8 °F 39.4 °F 29.33 in WSW 7.7 mph 11.5 mph 70 % 0.00 in
14:50 48.8 °F 38.7 °F 29.34 in WSW 8.4 mph 15.0 mph 68 % 0.00 in
14:55 48.7 °F 39.0 °F 29.34 in WSW 5.1 mph 13.0 mph 69 % 0.00 in
15:00 49.0 °F 39.3 °F 29.34 in WSW 5.3 mph 12.7 mph 69 % 0.00 in
15:05 49.1 °F 38.6 °F 29.34 in WSW 10.3 mph 15.0 mph 67 % 0.00 in
15:10 48.8 °F 38.7 °F 29.34 in WSW 2.8 mph 8.0 mph 68 % 0.00 in
15:15 48.9 °F 39.2 °F 29.33 in SW 8.3 mph 13.8 mph 69 % 0.00 in
15:20 49.0 °F 39.3 °F 29.34 in WNW 2.6 mph 4.6 mph 69 % 0.00 in
15:25 49.0 °F 38.9 °F 29.34 in SW 5.2 mph 12.7 mph 68 % 0.00 in
15:30 49.1 °F 39.0 °F 29.34 in WSW 9.3 mph 16.1 mph 68 % 0.00 in
15:35 49.1 °F 39.7 °F 29.34 in SW 5.2 mph 10.4 mph 70 % 0.00 in
15:40 48.8 °F 39.8 °F 29.35 in SSW 4.3 mph 10.0 mph 71 % 0.00 in
15:45 48.4 °F 39.4 °F 29.34 in West 7.0 mph 11.5 mph 71 % 0.00 in
15:50 48.1 °F 39.1 °F 29.34 in SW 6.1 mph 11.5 mph 71 % 0.00 in
15:55 47.9 °F 38.6 °F 29.34 in West 7.3 mph 10.4 mph 70 % 0.00 in
16:00 47.8 °F 38.5 °F 29.34 in WSW 3.5 mph 10.4 mph 70 % 0.00 in
16:05 47.8 °F 38.5 °F 29.35 in WSW 9.0 mph 9.2 mph 70 % 0.00 in
16:10 47.9 °F 38.6 °F 29.35 in WSW 3.9 mph 10.4 mph 70 % 0.00 in
16:15 47.9 °F 38.2 °F 29.35 in WSW 7.2 mph 14.0 mph 69 % 0.00 in
16:20 48.0 °F 38.3 °F 29.35 in SW 7.8 mph 11.5 mph 69 % 0.00 in
16:26 48.1 °F 38.0 °F 29.35 in West 8.4 mph 13.8 mph 68 % 0.00 in
16:36 48.2 °F 37.4 °F 29.36 in WSW 4.0 mph 9.2 mph 66 % 0.00 in
16:41 48.3 °F 37.1 °F 29.36 in WSW 6.4 mph 10.4 mph 65 % 0.00 in
16:46 48.3 °F 37.5 °F 29.36 in WSW 8.0 mph 12.7 mph 66 % 0.00 in
16:51 48.3 °F 38.2 °F 29.36 in WNW 6.9 mph 13.8 mph 68 % 0.00 in
16:56 48.4 °F 37.9 °F 29.36 in WSW 4.2 mph 11.5 mph 67 % 0.00 in
17:01 48.5 °F 38.0 °F 29.37 in WSW 9.1 mph 11.5 mph 67 % 0.00 in
17:06 48.4 °F 37.2 °F 29.37 in West 7.1 mph 10.4 mph 65 % 0.00 in
17:11 48.5 °F 36.1 °F 29.37 in West 7.8 mph 12.7 mph 62 % 0.00 in
17:16 48.5 °F 35.7 °F 29.38 in WNW 7.3 mph 15.0 mph 61 % 0.00 in
17:21 48.5 °F 35.7 °F 29.38 in NNW 7.0 mph 9.2 mph 61 % 0.00 in
17:26 48.5 °F 35.7 °F 29.38 in West 8.3 mph 11.5 mph 61 % 0.00 in
17:31 48.4 °F 35.6 °F 29.39 in SW 10.6 mph 22.0 mph 61 % 0.00 in
17:36 48.3 °F 35.9 °F 29.39 in West 6.7 mph 14.0 mph 62 % 0.00 in
17:41 48.1 °F 35.7 °F 29.39 in West 9.4 mph 15.0 mph 62 % 0.00 in
17:46 48.0 °F 35.6 °F 29.39 in WNW 8.9 mph 17.3 mph 62 % 0.00 in
17:51 47.9 °F 35.1 °F 29.39 in SW 7.5 mph 12.7 mph 61 % 0.00 in
17:56 47.9 °F 35.1 °F 29.40 in West 9.7 mph 17.3 mph 61 % 0.00 in
18:01 47.8 °F 35.4 °F 29.40 in WSW 9.2 mph 13.8 mph 62 % 0.00 in
18:06 47.8 °F 35.4 °F 29.41 in WSW 8.5 mph 12.7 mph 62 % 0.00 in
18:11 47.7 °F 34.9 °F 29.41 in NNW 6.1 mph 11.5 mph 61 % 0.00 in
18:16 47.6 °F 34.8 °F 29.41 in SW 8.6 mph 14.0 mph 61 % 0.00 in
18:21 47.4 °F 34.6 °F 29.41 in WSW 6.5 mph 11.0 mph 61 % 0.00 in
18:26 47.3 °F 34.5 °F 29.42 in West 6.0 mph 10.4 mph 61 % 0.00 in
18:31 47.2 °F 34.8 °F 29.42 in NW 9.8 mph 18.4 mph 62 % 0.00 in
18:37 47.1 °F 34.7 °F 29.43 in SW 8.8 mph 12.7 mph 62 % 0.00 in
18:42 47.0 °F 34.2 °F 29.43 in West 11.4 mph 17.0 mph 61 % 0.00 in
18:47 46.8 °F 33.2 °F 29.44 in West 10.5 mph 17.0 mph 59 % 0.00 in
18:52 46.6 °F 33.4 °F 29.44 in WNW 8.4 mph 15.0 mph 60 % 0.00 in
18:57 46.4 °F 33.7 °F 29.44 in West 8.1 mph 12.7 mph 61 % 0.00 in
19:02 46.2 °F 34.3 °F 29.45 in West 7.5 mph 12.7 mph 63 % 0.00 in
19:07 45.7 °F 33.8 °F 29.45 in WNW 9.3 mph 16.1 mph 63 % 0.00 in
19:12 45.3 °F 33.8 °F 29.45 in WSW 8.0 mph 15.0 mph 64 % 0.00 in
19:17 45.0 °F 34.3 °F 29.45 in NW 7.7 mph 16.1 mph 66 % 0.00 in
19:22 44.7 °F 34.4 °F 29.46 in WSW 10.2 mph 18.0 mph 67 % 0.00 in
19:27 44.4 °F 33.7 °F 29.46 in NW 6.1 mph 18.4 mph 66 % 0.00 in
19:32 44.2 °F 33.9 °F 29.47 in West 7.6 mph 19.6 mph 67 % 0.00 in
19:37 44.0 °F 34.1 °F 29.47 in WNW 6.0 mph 15.0 mph 68 % 0.00 in
19:42 43.8 °F 33.9 °F 29.48 in NW 6.8 mph 12.7 mph 68 % 0.00 in
19:47 43.7 °F 34.2 °F 29.48 in WNW 3.6 mph 12.7 mph 69 % 0.00 in
19:52 43.6 °F 34.1 °F 29.48 in WNW 5.0 mph 13.0 mph 69 % 0.00 in
19:57 43.5 °F 34.0 °F 29.49 in West 4.3 mph 11.5 mph 69 % 0.00 in
20:02 43.4 °F 33.9 °F 29.49 in WNW 9.0 mph 16.0 mph 69 % 0.00 in
20:07 43.3 °F 33.4 °F 29.49 in WNW 4.5 mph 17.3 mph 68 % 0.00 in
20:12 43.2 °F 33.3 °F 29.50 in WSW 6.5 mph 13.8 mph 68 % 0.00 in
20:17 43.1 °F 33.6 °F 29.50 in WNW 6.0 mph 15.0 mph 69 % 0.00 in
20:22 43.0 °F 33.5 °F 29.50 in West 8.9 mph 15.0 mph 69 % 0.00 in
20:27 43.0 °F 33.5 °F 29.51 in NW 8.5 mph 20.7 mph 69 % 0.00 in
20:32 42.9 °F 33.4 °F 29.51 in NW 9.6 mph 17.3 mph 69 % 0.00 in
20:37 42.9 °F 33.4 °F 29.51 in NW 8.3 mph 11.5 mph 69 % 0.00 in
20:42 42.8 °F 33.3 °F 29.52 in NW 9.1 mph 11.5 mph 69 % 0.00 in
20:47 42.7 °F 33.2 °F 29.52 in West 5.6 mph 12.7 mph 69 % 0.00 in
20:52 42.6 °F 33.1 °F 29.53 in WNW 8.0 mph 16.0 mph 69 % 0.00 in
20:57 42.5 °F 33.0 °F 29.53 in WNW 11.9 mph 19.6 mph 69 % 0.00 in
21:02 42.4 °F 32.6 °F 29.53 in West 9.3 mph 13.8 mph 68 % 0.00 in
21:04 42.4 °F 32.6 °F 29.54 in WNW 7.0 mph 13.8 mph 68 % 0.00 in
21:09 42.3 °F 32.8 °F 29.54 in West 7.0 mph 15.0 mph 69 % 0.00 in
21:14 42.2 °F 32.8 °F 29.55 in NW 7.3 mph 17.0 mph 69 % 0.00 in
21:18 42.2 °F 32.4 °F 29.55 in WNW 7.5 mph 19.6 mph 68 % 0.00 in
21:23 42.1 °F 32.3 °F 29.55 in WNW 10.1 mph 18.0 mph 68 % 0.00 in
21:28 42.1 °F 32.7 °F 29.55 in WNW 10.2 mph 14.0 mph 69 % 0.00 in
21:33 42.0 °F 32.2 °F 29.55 in WSW 6.7 mph 12.7 mph 68 % 0.00 in
21:38 42.0 °F 32.2 °F 29.56 in WSW 6.1 mph 11.5 mph 68 % 0.00 in
21:43 42.0 °F 31.8 °F 29.56 in NW 6.8 mph 21.9 mph 67 % 0.00 in
21:48 41.9 °F 31.7 °F 29.56 in WNW 7.8 mph 11.5 mph 67 % 0.00 in
21:53 41.9 °F 31.7 °F 29.56 in WNW 9.4 mph 19.6 mph 67 % 0.00 in
21:58 41.9 °F 31.4 °F 29.56 in WNW 7.9 mph 13.8 mph 66 % 0.00 in
22:03 42.0 °F 31.8 °F 29.56 in NW 8.2 mph 13.0 mph 67 % 0.00 in
22:08 42.0 °F 31.8 °F 29.56 in WNW 6.5 mph 13.8 mph 67 % 0.00 in
22:13 42.0 °F 31.5 °F 29.57 in WNW 5.2 mph 11.5 mph 66 % 0.00 in
22:18 41.9 °F 31.7 °F 29.57 in West 8.5 mph 13.0 mph 67 % 0.00 in
22:23 41.9 °F 31.7 °F 29.57 in WNW 3.5 mph 9.2 mph 67 % 0.00 in
22:28 41.9 °F 31.7 °F 29.57 in West 7.0 mph 12.7 mph 67 % 0.00 in
22:38 41.8 °F 31.3 °F 29.57 in West 7.4 mph 13.8 mph 66 % 0.00 in
22:43 41.7 °F 31.5 °F 29.57 in West 9.9 mph 20.7 mph 67 % 0.00 in
22:48 41.7 °F 31.5 °F 29.57 in NW 7.9 mph 17.3 mph 67 % 0.00 in
22:53 41.6 °F 31.1 °F 29.58 in NW 7.1 mph 11.5 mph 66 % 0.00 in
22:58 41.6 °F 31.4 °F 29.58 in NW 5.9 mph 19.6 mph 67 % 0.00 in
23:03 41.5 °F 31.4 °F 29.58 in West 8.3 mph 15.0 mph 67 % 0.00 in
23:08 41.5 °F 31.4 °F 29.58 in WNW 6.7 mph 11.5 mph 67 % 0.00 in
23:13 41.4 °F 31.3 °F 29.58 in WNW 7.4 mph 13.8 mph 67 % 0.00 in
23:18 41.4 °F 31.3 °F 29.58 in WNW 8.9 mph 15.0 mph 67 % 0.00 in
23:23 41.3 °F 31.2 °F 29.58 in WSW 7.4 mph 12.7 mph 67 % 0.00 in
23:28 41.3 °F 31.2 °F 29.58 in West 7.4 mph 15.0 mph 67 % 0.00 in
23:33 41.3 °F 31.2 °F 29.58 in West 9.3 mph 13.8 mph 67 % 0.00 in
23:39 41.3 °F 31.2 °F 29.58 in West 5.8 mph 15.0 mph 67 % 0.00 in
23:44 41.3 °F 31.2 °F 29.58 in WNW 6.7 mph 15.0 mph 67 % 0.00 in
23:49 41.3 °F 31.2 °F 29.58 in NNW 7.3 mph 11.0 mph 67 % 0.00 in
23:54 41.2 °F 31.4 °F 29.58 in NW 7.5 mph 14.0 mph 68 % 0.00 in
23:59 41.2 °F 31.4 °F 29.58 in SW 2.8 mph 6.9 mph 68 % 0.00 in
Crab Meadow Weather
Compliments of Weather Underground - 3 mb

Script developed by  Jim McMurry - jmcmurry@mwt.net Adapted for the template by  Wim van der Kuil - Leuven-Template.eu

One Inch of Rain: One inch of rain over one square mile equals to 17.4 million gallons of water.